sensor_id;sensor_type;location;lat;lon;timestamp;temperature;humidity
2112;DHT22;1062;52.538;13.400;2022-07-24T00:01:17;15.70;99.90
2112;DHT22;1062;52.538;13.400;2022-07-24T00:03:43;15.70;99.90
2112;DHT22;1062;52.538;13.400;2022-07-24T00:06:08;15.60;99.90
2112;DHT22;1062;52.538;13.400;2022-07-24T00:08:34;15.60;99.90
2112;DHT22;1062;52.538;13.400;2022-07-24T00:11:00;15.60;99.90
2112;DHT22;1062;52.538;13.400;2022-07-24T00:13:25;15.60;99.90
2112;DHT22;1062;52.538;13.400;2022-07-24T00:15:51;15.50;99.90
2112;DHT22;1062;52.538;13.400;2022-07-24T00:18:16;15.50;99.90
2112;DHT22;1062;52.538;13.400;2022-07-24T00:20:42;15.50;99.90
2112;DHT22;1062;52.538;13.400;2022-07-24T00:23:08;15.40;99.90
2112;DHT22;1062;52.538;13.400;2022-07-24T00:25:33;15.30;99.90
2112;DHT22;1062;52.538;13.400;2022-07-24T00:27:59;15.30;99.90
2112;DHT22;1062;52.538;13.400;2022-07-24T00:30:25;15.20;99.90
2112;DHT22;1062;52.538;13.400;2022-07-24T00:32:50;15.20;99.90
2112;DHT22;1062;52.538;13.400;2022-07-24T00:35:16;15.20;99.90
2112;DHT22;1062;52.538;13.400;2022-07-24T00:37:43;15.10;99.90
2112;DHT22;1062;52.538;13.400;2022-07-24T00:40:09;15.10;99.90
2112;DHT22;1062;52.538;13.400;2022-07-24T00:42:34;15.10;99.90
2112;DHT22;1062;52.538;13.400;2022-07-24T00:45:00;15.20;99.90
2112;DHT22;1062;52.538;13.400;2022-07-24T00:47:25;15.10;99.90
2112;DHT22;1062;52.538;13.400;2022-07-24T00:49:51;15.10;99.90
2112;DHT22;1062;52.538;13.400;2022-07-24T00:52:17;15.10;99.90
2112;DHT22;1062;52.538;13.400;2022-07-24T00:54:42;15.00;99.90
2112;DHT22;1062;52.538;13.400;2022-07-24T00:57:08;15.00;99.90
2112;DHT22;1062;52.538;13.400;2022-07-24T00:59:34;15.00;99.90
2112;DHT22;1062;52.538;13.400;2022-07-24T01:01:59;15.00;99.90
2112;DHT22;1062;52.538;13.400;2022-07-24T01:04:25;14.90;99.90
2112;DHT22;1062;52.538;13.400;2022-07-24T01:06:51;14.90;99.90
2112;DHT22;1062;52.538;13.400;2022-07-24T01:09:16;15.10;99.90
2112;DHT22;1062;52.538;13.400;2022-07-24T01:11:42;15.10;99.90
2112;DHT22;1062;52.538;13.400;2022-07-24T01:14:10;15.20;99.90
2112;DHT22;1062;52.538;13.400;2022-07-24T01:16:38;15.10;99.90
2112;DHT22;1062;52.538;13.400;2022-07-24T01:19:04;15.00;99.90
2112;DHT22;1062;52.538;13.400;2022-07-24T01:21:29;15.00;99.90
2112;DHT22;1062;52.538;13.400;2022-07-24T01:23:55;14.90;99.90
2112;DHT22;1062;52.538;13.400;2022-07-24T01:26:20;15.00;99.90
2112;DHT22;1062;52.538;13.400;2022-07-24T01:28:46;15.00;99.90
2112;DHT22;1062;52.538;13.400;2022-07-24T01:31:12;14.90;99.90
2112;DHT22;1062;52.538;13.400;2022-07-24T01:33:37;15.00;99.90
2112;DHT22;1062;52.538;13.400;2022-07-24T01:36:03;14.90;99.90
2112;DHT22;1062;52.538;13.400;2022-07-24T01:38:28;14.90;99.90
2112;DHT22;1062;52.538;13.400;2022-07-24T01:40:54;14.80;99.90
2112;DHT22;1062;52.538;13.400;2022-07-24T01:43:19;14.70;99.90
2112;DHT22;1062;52.538;13.400;2022-07-24T01:45:45;14.70;99.90
2112;DHT22;1062;52.538;13.400;2022-07-24T01:48:11;14.70;99.90
2112;DHT22;1062;52.538;13.400;2022-07-24T01:50:37;14.70;99.90
2112;DHT22;1062;52.538;13.400;2022-07-24T01:53:02;14.70;99.90
2112;DHT22;1062;52.538;13.400;2022-07-24T01:55:29;14.70;99.90
2112;DHT22;1062;52.538;13.400;2022-07-24T01:57:55;14.70;99.90
2112;DHT22;1062;52.538;13.400;2022-07-24T02:00:21;14.80;99.90
2112;DHT22;1062;52.538;13.400;2022-07-24T02:02:46;14.70;99.90
2112;DHT22;1062;52.538;13.400;2022-07-24T02:05:13;14.70;99.90
2112;DHT22;1062;52.538;13.400;2022-07-24T02:07:42;14.70;99.90
2112;DHT22;1062;52.538;13.400;2022-07-24T02:10:10;14.70;99.90
2112;DHT22;1062;52.538;13.400;2022-07-24T02:12:36;14.70;99.90
2112;DHT22;1062;52.538;13.400;2022-07-24T02:15:02;14.70;99.90
2112;DHT22;1062;52.538;13.400;2022-07-24T02:17:27;14.70;99.90
2112;DHT22;1062;52.538;13.400;2022-07-24T02:19:53;14.70;99.90
2112;DHT22;1062;52.538;13.400;2022-07-24T02:22:18;14.60;99.90
2112;DHT22;1062;52.538;13.400;2022-07-24T02:24:44;14.50;99.90
2112;DHT22;1062;52.538;13.400;2022-07-24T02:27:10;14.50;99.90
2112;DHT22;1062;52.538;13.400;2022-07-24T02:29:35;14.40;99.90
2112;DHT22;1062;52.538;13.400;2022-07-24T02:32:01;14.50;99.90
2112;DHT22;1062;52.538;13.400;2022-07-24T02:34:27;14.50;99.90
2112;DHT22;1062;52.538;13.400;2022-07-24T02:36:52;14.40;99.90
2112;DHT22;1062;52.538;13.400;2022-07-24T02:39:18;14.30;99.90
2112;DHT22;1062;52.538;13.400;2022-07-24T02:41:43;14.40;99.90
2112;DHT22;1062;52.538;13.400;2022-07-24T02:44:09;14.40;99.90
2112;DHT22;1062;52.538;13.400;2022-07-24T02:46:35;14.30;99.90
2112;DHT22;1062;52.538;13.400;2022-07-24T02:49:01;14.20;99.90
2112;DHT22;1062;52.538;13.400;2022-07-24T02:51:27;14.20;99.90
2112;DHT22;1062;52.538;13.400;2022-07-24T02:53:52;14.20;99.90
2112;DHT22;1062;52.538;13.400;2022-07-24T02:56:18;14.10;99.90
2112;DHT22;1062;52.538;13.400;2022-07-24T02:58:43;14.20;99.90
2112;DHT22;1062;52.538;13.400;2022-07-24T03:01:09;14.20;99.90
2112;DHT22;1062;52.538;13.400;2022-07-24T03:03:35;14.20;99.90
2112;DHT22;1062;52.538;13.400;2022-07-24T03:06:01;14.20;99.90
2112;DHT22;1062;52.538;13.400;2022-07-24T03:08:26;14.20;99.90
2112;DHT22;1062;52.538;13.400;2022-07-24T03:10:52;14.10;99.90
2112;DHT22;1062;52.538;13.400;2022-07-24T03:13:17;14.20;99.90
2112;DHT22;1062;52.538;13.400;2022-07-24T03:15:43;14.20;99.90
2112;DHT22;1062;52.538;13.400;2022-07-24T03:18:09;14.10;99.90
2112;DHT22;1062;52.538;13.400;2022-07-24T03:20:34;14.10;99.90
2112;DHT22;1062;52.538;13.400;2022-07-24T03:23:00;14.10;99.90
2112;DHT22;1062;52.538;13.400;2022-07-24T03:25:26;14.10;99.90
2112;DHT22;1062;52.538;13.400;2022-07-24T03:27:51;14.10;99.90
2112;DHT22;1062;52.538;13.400;2022-07-24T03:30:18;14.10;99.90
2112;DHT22;1062;52.538;13.400;2022-07-24T03:32:45;14.20;99.90
2112;DHT22;1062;52.538;13.400;2022-07-24T03:35:10;14.10;99.90
2112;DHT22;1062;52.538;13.400;2022-07-24T03:37:36;14.00;99.90
2112;DHT22;1062;52.538;13.400;2022-07-24T03:40:03;14.10;99.90
2112;DHT22;1062;52.538;13.400;2022-07-24T03:42:28;14.20;99.90
2112;DHT22;1062;52.538;13.400;2022-07-24T03:44:54;14.10;99.90
2112;DHT22;1062;52.538;13.400;2022-07-24T03:47:20;14.10;99.90
2112;DHT22;1062;52.538;13.400;2022-07-24T03:49:45;14.20;99.90
2112;DHT22;1062;52.538;13.400;2022-07-24T03:52:11;14.10;99.90
2112;DHT22;1062;52.538;13.400;2022-07-24T03:54:36;14.10;99.90
2112;DHT22;1062;52.538;13.400;2022-07-24T03:57:02;14.20;99.90
2112;DHT22;1062;52.538;13.400;2022-07-24T03:59:28;14.10;99.90
2112;DHT22;1062;52.538;13.400;2022-07-24T04:01:53;14.30;99.90
2112;DHT22;1062;52.538;13.400;2022-07-24T04:04:19;14.30;99.90
2112;DHT22;1062;52.538;13.400;2022-07-24T04:06:44;14.30;99.90
2112;DHT22;1062;52.538;13.400;2022-07-24T04:09:10;14.30;99.90
2112;DHT22;1062;52.538;13.400;2022-07-24T04:11:36;14.30;99.90
2112;DHT22;1062;52.538;13.400;2022-07-24T04:14:01;14.30;99.90
2112;DHT22;1062;52.538;13.400;2022-07-24T04:16:27;14.30;99.90
2112;DHT22;1062;52.538;13.400;2022-07-24T04:18:53;14.30;99.90
2112;DHT22;1062;52.538;13.400;2022-07-24T04:21:19;14.30;99.90
2112;DHT22;1062;52.538;13.400;2022-07-24T04:23:44;14.40;99.90
2112;DHT22;1062;52.538;13.400;2022-07-24T04:26:10;14.40;99.90
2112;DHT22;1062;52.538;13.400;2022-07-24T04:28:36;14.50;99.90
2112;DHT22;1062;52.538;13.400;2022-07-24T04:31:01;14.50;99.90
2112;DHT22;1062;52.538;13.400;2022-07-24T04:33:27;14.60;99.90
2112;DHT22;1062;52.538;13.400;2022-07-24T04:35:53;14.60;99.90
2112;DHT22;1062;52.538;13.400;2022-07-24T04:38:18;14.60;99.90
2112;DHT22;1062;52.538;13.400;2022-07-24T04:40:44;14.70;99.90
2112;DHT22;1062;52.538;13.400;2022-07-24T04:43:10;14.70;99.90
2112;DHT22;1062;52.538;13.400;2022-07-24T04:45:35;14.80;99.90
2112;DHT22;1062;52.538;13.400;2022-07-24T04:48:01;14.80;99.90
2112;DHT22;1062;52.538;13.400;2022-07-24T04:50:27;14.90;99.90
2112;DHT22;1062;52.538;13.400;2022-07-24T04:52:52;14.90;99.90
2112;DHT22;1062;52.538;13.400;2022-07-24T04:55:18;15.00;99.90
2112;DHT22;1062;52.538;13.400;2022-07-24T04:57:43;15.10;99.90
2112;DHT22;1062;52.538;13.400;2022-07-24T05:00:11;15.10;99.90
2112;DHT22;1062;52.538;13.400;2022-07-24T05:02:38;15.10;99.90
2112;DHT22;1062;52.538;13.400;2022-07-24T05:05:05;15.20;99.90
2112;DHT22;1062;52.538;13.400;2022-07-24T05:07:31;15.50;99.90
2112;DHT22;1062;52.538;13.400;2022-07-24T05:09:57;15.70;99.90
2112;DHT22;1062;52.538;13.400;2022-07-24T05:12:24;15.90;99.90
2112;DHT22;1062;52.538;13.400;2022-07-24T05:14:49;16.20;99.90
2112;DHT22;1062;52.538;13.400;2022-07-24T05:17:15;16.70;99.90
2112;DHT22;1062;52.538;13.400;2022-07-24T05:19:40;17.10;99.90
2112;DHT22;1062;52.538;13.400;2022-07-24T05:22:06;17.30;99.90
2112;DHT22;1062;52.538;13.400;2022-07-24T05:24:32;17.80;99.90
2112;DHT22;1062;52.538;13.400;2022-07-24T05:26:58;18.40;99.90
2112;DHT22;1062;52.538;13.400;2022-07-24T05:29:24;17.90;99.90
2112;DHT22;1062;52.538;13.400;2022-07-24T05:31:49;18.00;99.90
2112;DHT22;1062;52.538;13.400;2022-07-24T05:34:16;19.00;99.90
2112;DHT22;1062;52.538;13.400;2022-07-24T05:36:42;19.20;99.90
2112;DHT22;1062;52.538;13.400;2022-07-24T05:39:08;18.90;99.90
2112;DHT22;1062;52.538;13.400;2022-07-24T05:41:33;19.40;99.90
2112;DHT22;1062;52.538;13.400;2022-07-24T05:43:59;19.20;99.90
2112;DHT22;1062;52.538;13.400;2022-07-24T05:46:24;20.50;99.90
2112;DHT22;1062;52.538;13.400;2022-07-24T05:48:50;21.60;99.90
2112;DHT22;1062;52.538;13.400;2022-07-24T05:51:15;22.20;99.90
2112;DHT22;1062;52.538;13.400;2022-07-24T05:53:41;22.10;99.90
2112;DHT22;1062;52.538;13.400;2022-07-24T05:56:07;23.00;99.90
2112;DHT22;1062;52.538;13.400;2022-07-24T05:58:32;22.80;99.90
2112;DHT22;1062;52.538;13.400;2022-07-24T06:00:58;22.20;99.90
2112;DHT22;1062;52.538;13.400;2022-07-24T06:03:23;21.90;99.90
2112;DHT22;1062;52.538;13.400;2022-07-24T06:05:49;21.40;99.90
2112;DHT22;1062;52.538;13.400;2022-07-24T06:08:14;20.60;99.90
2112;DHT22;1062;52.538;13.400;2022-07-24T06:10:40;20.60;99.90
2112;DHT22;1062;52.538;13.400;2022-07-24T06:13:06;21.70;99.90
2112;DHT22;1062;52.538;13.400;2022-07-24T06:15:31;22.50;99.90
2112;DHT22;1062;52.538;13.400;2022-07-24T06:17:58;22.70;99.90
2112;DHT22;1062;52.538;13.400;2022-07-24T06:20:24;21.80;99.90
2112;DHT22;1062;52.538;13.400;2022-07-24T06:22:50;20.70;99.90
2112;DHT22;1062;52.538;13.400;2022-07-24T06:25:16;20.20;99.90
2112;DHT22;1062;52.538;13.400;2022-07-24T06:27:47;20.90;99.90
2112;DHT22;1062;52.538;13.400;2022-07-24T06:30:21;22.00;99.90
2112;DHT22;1062;52.538;13.400;2022-07-24T06:32:47;22.60;99.90
2112;DHT22;1062;52.538;13.400;2022-07-24T06:35:14;24.80;99.60
2112;DHT22;1062;52.538;13.400;2022-07-24T06:37:40;23.60;99.20
2112;DHT22;1062;52.538;13.400;2022-07-24T06:40:06;24.10;99.30
2112;DHT22;1062;52.538;13.400;2022-07-24T06:42:32;24.10;98.10
2112;DHT22;1062;52.538;13.400;2022-07-24T06:44:57;24.50;97.00
2112;DHT22;1062;52.538;13.400;2022-07-24T06:47:23;23.60;97.80
2112;DHT22;1062;52.538;13.400;2022-07-24T06:49:49;24.80;97.00
2112;DHT22;1062;52.538;13.400;2022-07-24T06:52:15;25.80;95.40
2112;DHT22;1062;52.538;13.400;2022-07-24T06:54:41;25.60;95.20
2112;DHT22;1062;52.538;13.400;2022-07-24T06:57:07;24.90;95.40
2112;DHT22;1062;52.538;13.400;2022-07-24T06:59:32;25.30;95.60
2112;DHT22;1062;52.538;13.400;2022-07-24T07:01:58;25.10;94.70
2112;DHT22;1062;52.538;13.400;2022-07-24T07:04:24;24.30;94.80
2112;DHT22;1062;52.538;13.400;2022-07-24T07:06:49;24.40;95.60
2112;DHT22;1062;52.538;13.400;2022-07-24T07:09:15;24.60;95.10
2112;DHT22;1062;52.538;13.400;2022-07-24T07:11:40;25.40;95.50
2112;DHT22;1062;52.538;13.400;2022-07-24T07:14:06;25.50;94.30
2112;DHT22;1062;52.538;13.400;2022-07-24T07:16:32;27.00;92.20
2112;DHT22;1062;52.538;13.400;2022-07-24T07:18:57;25.20;92.70
2112;DHT22;1062;52.538;13.400;2022-07-24T07:21:23;24.60;94.20
2112;DHT22;1062;52.538;13.400;2022-07-24T07:23:48;25.50;92.40
2112;DHT22;1062;52.538;13.400;2022-07-24T07:26:14;26.00;92.60
2112;DHT22;1062;52.538;13.400;2022-07-24T07:28:39;25.90;92.60
2112;DHT22;1062;52.538;13.400;2022-07-24T07:31:05;25.70;93.00
2112;DHT22;1062;52.538;13.400;2022-07-24T07:33:31;25.20;92.80
2112;DHT22;1062;52.538;13.400;2022-07-24T07:35:56;24.50;93.90
2112;DHT22;1062;52.538;13.400;2022-07-24T07:38:22;26.20;90.90
2112;DHT22;1062;52.538;13.400;2022-07-24T07:40:47;26.60;90.10
2112;DHT22;1062;52.538;13.400;2022-07-24T07:43:13;26.50;90.10
2112;DHT22;1062;52.538;13.400;2022-07-24T07:45:38;27.30;86.80
2112;DHT22;1062;52.538;13.400;2022-07-24T07:48:04;27.40;85.90
2112;DHT22;1062;52.538;13.400;2022-07-24T07:50:30;26.10;88.70
2112;DHT22;1062;52.538;13.400;2022-07-24T07:52:55;27.50;87.00
2112;DHT22;1062;52.538;13.400;2022-07-24T07:55:21;28.00;84.40
2112;DHT22;1062;52.538;13.400;2022-07-24T07:57:47;26.40;89.00
2112;DHT22;1062;52.538;13.400;2022-07-24T08:00:13;27.00;87.00
2112;DHT22;1062;52.538;13.400;2022-07-24T08:02:39;28.70;80.40
2112;DHT22;1062;52.538;13.400;2022-07-24T08:05:05;26.90;81.70
2112;DHT22;1062;52.538;13.400;2022-07-24T08:07:31;27.50;78.90
2112;DHT22;1062;52.538;13.400;2022-07-24T08:09:57;26.40;80.80
2112;DHT22;1062;52.538;13.400;2022-07-24T08:12:23;26.60;84.60
2112;DHT22;1062;52.538;13.400;2022-07-24T08:14:48;27.20;83.40
2112;DHT22;1062;52.538;13.400;2022-07-24T08:17:14;27.00;79.60
2112;DHT22;1062;52.538;13.400;2022-07-24T08:19:40;27.80;76.30
2112;DHT22;1062;52.538;13.400;2022-07-24T08:22:05;27.40;76.90
2112;DHT22;1062;52.538;13.400;2022-07-24T08:24:31;26.40;76.10
2112;DHT22;1062;52.538;13.400;2022-07-24T08:26:58;25.90;80.70
2112;DHT22;1062;52.538;13.400;2022-07-24T08:29:25;25.80;80.70
2112;DHT22;1062;52.538;13.400;2022-07-24T08:31:51;26.60;76.80
2112;DHT22;1062;52.538;13.400;2022-07-24T08:34:16;27.50;76.20
2112;DHT22;1062;52.538;13.400;2022-07-24T08:36:42;27.80;75.00
2112;DHT22;1062;52.538;13.400;2022-07-24T08:39:13;27.70;74.40
2112;DHT22;1062;52.538;13.400;2022-07-24T08:41:41;27.80;75.60
2112;DHT22;1062;52.538;13.400;2022-07-24T08:44:07;27.00;78.70
2112;DHT22;1062;52.538;13.400;2022-07-24T08:46:37;28.30;76.00
2112;DHT22;1062;52.538;13.400;2022-07-24T08:49:05;29.90;69.80
2112;DHT22;1062;52.538;13.400;2022-07-24T08:51:32;26.70;74.10
2112;DHT22;1062;52.538;13.400;2022-07-24T08:54:01;27.10;76.50
2112;DHT22;1062;52.538;13.400;2022-07-24T08:56:28;26.70;76.90
2112;DHT22;1062;52.538;13.400;2022-07-24T08:58:54;26.00;76.50
2112;DHT22;1062;52.538;13.400;2022-07-24T09:01:20;27.30;76.30
2112;DHT22;1062;52.538;13.400;2022-07-24T09:03:46;27.80;72.00
2112;DHT22;1062;52.538;13.400;2022-07-24T09:06:13;28.90;69.90
2112;DHT22;1062;52.538;13.400;2022-07-24T09:08:59;27.50;73.30
2112;DHT22;1062;52.538;13.400;2022-07-24T09:11:25;28.30;71.30
2112;DHT22;1062;52.538;13.400;2022-07-24T09:13:58;27.50;68.80
2112;DHT22;1062;52.538;13.400;2022-07-24T09:16:43;28.30;69.50
2112;DHT22;1062;52.538;13.400;2022-07-24T09:19:09;27.60;69.40
2112;DHT22;1062;52.538;13.400;2022-07-24T09:21:37;28.50;69.90
2112;DHT22;1062;52.538;13.400;2022-07-24T09:24:20;27.90;68.90
2112;DHT22;1062;52.538;13.400;2022-07-24T09:26:54;28.60;67.60
2112;DHT22;1062;52.538;13.400;2022-07-24T09:29:25;27.20;69.50
2112;DHT22;1062;52.538;13.400;2022-07-24T09:31:59;26.90;74.00
2112;DHT22;1062;52.538;13.400;2022-07-24T09:34:27;27.60;72.60
2112;DHT22;1062;52.538;13.400;2022-07-24T09:37:05;28.20;67.30
2112;DHT22;1062;52.538;13.400;2022-07-24T09:39:35;26.80;70.90
2112;DHT22;1062;52.538;13.400;2022-07-24T09:42:03;28.00;68.60
2112;DHT22;1062;52.538;13.400;2022-07-24T09:44:29;27.10;70.20
2112;DHT22;1062;52.538;13.400;2022-07-24T09:47:00;26.60;72.80
2112;DHT22;1062;52.538;13.400;2022-07-24T09:49:26;27.10;74.70
2112;DHT22;1062;52.538;13.400;2022-07-24T09:54:35;27.80;71.00
2112;DHT22;1062;52.538;13.400;2022-07-24T09:57:22;27.30;70.20
2112;DHT22;1062;52.538;13.400;2022-07-24T09:59:56;26.80;73.20
2112;DHT22;1062;52.538;13.400;2022-07-24T10:02:28;27.40;72.30
2112;DHT22;1062;52.538;13.400;2022-07-24T10:04:55;27.60;70.70
2112;DHT22;1062;52.538;13.400;2022-07-24T10:07:22;27.60;68.10
2112;DHT22;1062;52.538;13.400;2022-07-24T10:09:51;26.30;70.50
2112;DHT22;1062;52.538;13.400;2022-07-24T10:12:25;26.40;73.10
2112;DHT22;1062;52.538;13.400;2022-07-24T10:14:54;26.10;72.00
2112;DHT22;1062;52.538;13.400;2022-07-24T10:17:20;26.40;73.50
2112;DHT22;1062;52.538;13.400;2022-07-24T10:19:50;27.40;71.00
2112;DHT22;1062;52.538;13.400;2022-07-24T10:22:23;27.10;71.80
2112;DHT22;1062;52.538;13.400;2022-07-24T10:27:34;26.80;71.90
2112;DHT22;1062;52.538;13.400;2022-07-24T10:30:04;26.30;74.00
2112;DHT22;1062;52.538;13.400;2022-07-24T10:32:32;26.20;74.60
2112;DHT22;1062;52.538;13.400;2022-07-24T10:38:10;25.20;76.20
2112;DHT22;1062;52.538;13.400;2022-07-24T10:45:36;25.90;76.30
2112;DHT22;1062;52.538;13.400;2022-07-24T10:48:25;25.60;78.60
2112;DHT22;1062;52.538;13.400;2022-07-24T10:53:45;25.40;77.20
2112;DHT22;1062;52.538;13.400;2022-07-24T10:59:08;25.50;78.50
2112;DHT22;1062;52.538;13.400;2022-07-24T11:01:38;25.40;76.40
2112;DHT22;1062;52.538;13.400;2022-07-24T11:04:27;24.90;79.20
2112;DHT22;1062;52.538;13.400;2022-07-24T11:07:13;25.40;79.20
2112;DHT22;1062;52.538;13.400;2022-07-24T11:12:30;25.80;79.40
2112;DHT22;1062;52.538;13.400;2022-07-24T11:15:04;25.60;77.80
2112;DHT22;1062;52.538;13.400;2022-07-24T11:17:48;25.80;77.60
2112;DHT22;1062;52.538;13.400;2022-07-24T11:20:16;25.90;77.50
2112;DHT22;1062;52.538;13.400;2022-07-24T11:25:17;25.20;77.10
2112;DHT22;1062;52.538;13.400;2022-07-24T11:30:17;25.70;76.40
2112;DHT22;1062;52.538;13.400;2022-07-24T11:32:43;26.00;76.60
2112;DHT22;1062;52.538;13.400;2022-07-24T11:35:10;26.00;74.30
2112;DHT22;1062;52.538;13.400;2022-07-24T11:37:39;26.00;75.90
2112;DHT22;1062;52.538;13.400;2022-07-24T11:40:06;26.00;76.10
2112;DHT22;1062;52.538;13.400;2022-07-24T11:42:34;26.00;77.60
2112;DHT22;1062;52.538;13.400;2022-07-24T11:45:00;26.30;77.20
2112;DHT22;1062;52.538;13.400;2022-07-24T11:47:27;26.60;75.80
2112;DHT22;1062;52.538;13.400;2022-07-24T11:49:55;26.70;74.90
2112;DHT22;1062;52.538;13.400;2022-07-24T11:54:53;26.90;72.90
2112;DHT22;1062;52.538;13.400;2022-07-24T11:57:33;26.10;74.70
2112;DHT22;1062;52.538;13.400;2022-07-24T12:00:00;26.60;73.60
2112;DHT22;1062;52.538;13.400;2022-07-24T12:02:26;26.70;73.20
2112;DHT22;1062;52.538;13.400;2022-07-24T12:04:52;26.50;74.60
2112;DHT22;1062;52.538;13.400;2022-07-24T12:07:24;26.30;73.00
2112;DHT22;1062;52.538;13.400;2022-07-24T12:12:37;27.00;71.70
2112;DHT22;1062;52.538;13.400;2022-07-24T12:15:10;26.70;73.30
2112;DHT22;1062;52.538;13.400;2022-07-24T12:18:00;26.60;73.40
2112;DHT22;1062;52.538;13.400;2022-07-24T12:20:40;26.70;74.90
2112;DHT22;1062;52.538;13.400;2022-07-24T12:23:08;26.80;73.50
2112;DHT22;1062;52.538;13.400;2022-07-24T12:25:34;26.90;74.60
2112;DHT22;1062;52.538;13.400;2022-07-24T12:28:11;26.90;73.50
2112;DHT22;1062;52.538;13.400;2022-07-24T12:30:41;26.90;73.30
2112;DHT22;1062;52.538;13.400;2022-07-24T12:33:08;26.90;72.40
2112;DHT22;1062;52.538;13.400;2022-07-24T12:35:54;27.30;72.40
2112;DHT22;1062;52.538;13.400;2022-07-24T12:38:30;26.60;71.20
2112;DHT22;1062;52.538;13.400;2022-07-24T12:41:09;26.50;70.30
2112;DHT22;1062;52.538;13.400;2022-07-24T12:46:23;26.50;73.20
2112;DHT22;1062;52.538;13.400;2022-07-24T12:51:50;27.00;71.10
2112;DHT22;1062;52.538;13.400;2022-07-24T12:54:33;27.30;70.10
2112;DHT22;1062;52.538;13.400;2022-07-24T12:57:09;27.40;69.50
2112;DHT22;1062;52.538;13.400;2022-07-24T12:59:37;27.50;69.30
2112;DHT22;1062;52.538;13.400;2022-07-24T13:02:03;27.20;68.80
2112;DHT22;1062;52.538;13.400;2022-07-24T13:04:29;27.40;70.00
2112;DHT22;1062;52.538;13.400;2022-07-24T13:06:58;27.60;68.50
2112;DHT22;1062;52.538;13.400;2022-07-24T13:09:25;27.40;69.20
2112;DHT22;1062;52.538;13.400;2022-07-24T13:11:53;27.10;67.30
2112;DHT22;1062;52.538;13.400;2022-07-24T13:14:21;26.90;67.40
2112;DHT22;1062;52.538;13.400;2022-07-24T13:16:49;27.10;68.20
2112;DHT22;1062;52.538;13.400;2022-07-24T13:19:15;27.50;69.00
2112;DHT22;1062;52.538;13.400;2022-07-24T13:21:42;27.50;67.10
2112;DHT22;1062;52.538;13.400;2022-07-24T13:24:09;27.20;68.30
2112;DHT22;1062;52.538;13.400;2022-07-24T13:26:37;27.10;68.00
2112;DHT22;1062;52.538;13.400;2022-07-24T13:29:04;27.50;68.40
2112;DHT22;1062;52.538;13.400;2022-07-24T13:31:29;27.00;67.30
2112;DHT22;1062;52.538;13.400;2022-07-24T13:33:55;26.70;67.80
2112;DHT22;1062;52.538;13.400;2022-07-24T13:36:21;27.00;66.40
2112;DHT22;1062;52.538;13.400;2022-07-24T13:38:46;27.20;66.40
2112;DHT22;1062;52.538;13.400;2022-07-24T13:41:13;27.00;67.80
2112;DHT22;1062;52.538;13.400;2022-07-24T13:43:39;27.10;68.10
2112;DHT22;1062;52.538;13.400;2022-07-24T13:46:05;26.90;67.80
2112;DHT22;1062;52.538;13.400;2022-07-24T13:48:31;27.40;68.20
2112;DHT22;1062;52.538;13.400;2022-07-24T13:50:57;27.40;68.10
2112;DHT22;1062;52.538;13.400;2022-07-24T13:53:23;27.50;67.90
2112;DHT22;1062;52.538;13.400;2022-07-24T13:55:48;27.60;67.30
2112;DHT22;1062;52.538;13.400;2022-07-24T13:58:14;27.50;67.50
2112;DHT22;1062;52.538;13.400;2022-07-24T14:00:40;27.70;64.20
2112;DHT22;1062;52.538;13.400;2022-07-24T14:03:06;27.50;66.50
2112;DHT22;1062;52.538;13.400;2022-07-24T14:05:32;27.40;67.30
2112;DHT22;1062;52.538;13.400;2022-07-24T14:07:57;27.20;67.70
2112;DHT22;1062;52.538;13.400;2022-07-24T14:10:23;27.40;67.30
2112;DHT22;1062;52.538;13.400;2022-07-24T14:12:49;27.40;67.10
2112;DHT22;1062;52.538;13.400;2022-07-24T14:15:15;27.50;65.70
2112;DHT22;1062;52.538;13.400;2022-07-24T14:17:42;27.50;65.90
2112;DHT22;1062;52.538;13.400;2022-07-24T14:20:09;27.70;65.40
2112;DHT22;1062;52.538;13.400;2022-07-24T14:22:37;27.60;64.80
2112;DHT22;1062;52.538;13.400;2022-07-24T14:25:04;27.50;63.90
2112;DHT22;1062;52.538;13.400;2022-07-24T14:27:29;27.20;64.80
2112;DHT22;1062;52.538;13.400;2022-07-24T14:29:55;27.10;65.20
2112;DHT22;1062;52.538;13.400;2022-07-24T14:32:21;27.10;65.10
2112;DHT22;1062;52.538;13.400;2022-07-24T14:34:46;27.20;65.00
2112;DHT22;1062;52.538;13.400;2022-07-24T14:37:12;27.60;64.50
2112;DHT22;1062;52.538;13.400;2022-07-24T14:39:37;27.60;62.60
2112;DHT22;1062;52.538;13.400;2022-07-24T14:42:03;27.40;63.90
2112;DHT22;1062;52.538;13.400;2022-07-24T14:44:29;27.40;64.80
2112;DHT22;1062;52.538;13.400;2022-07-24T14:46:54;27.50;65.00
2112;DHT22;1062;52.538;13.400;2022-07-24T14:49:20;27.60;64.30
2112;DHT22;1062;52.538;13.400;2022-07-24T14:51:46;27.60;61.70
2112;DHT22;1062;52.538;13.400;2022-07-24T14:54:12;27.50;62.80
2112;DHT22;1062;52.538;13.400;2022-07-24T14:56:38;27.40;62.10
2112;DHT22;1062;52.538;13.400;2022-07-24T14:59:05;27.40;63.60
2112;DHT22;1062;52.538;13.400;2022-07-24T15:01:31;27.50;62.60
2112;DHT22;1062;52.538;13.400;2022-07-24T15:03:56;27.60;62.30
2112;DHT22;1062;52.538;13.400;2022-07-24T15:06:22;27.70;60.30
2112;DHT22;1062;52.538;13.400;2022-07-24T15:08:48;27.70;61.10
2112;DHT22;1062;52.538;13.400;2022-07-24T15:11:13;27.90;60.60
2112;DHT22;1062;52.538;13.400;2022-07-24T15:13:39;28.00;59.20
2112;DHT22;1062;52.538;13.400;2022-07-24T15:16:08;27.90;58.30
2112;DHT22;1062;52.538;13.400;2022-07-24T15:18:34;27.40;58.90
2112;DHT22;1062;52.538;13.400;2022-07-24T15:21:00;27.60;59.70
2112;DHT22;1062;52.538;13.400;2022-07-24T15:23:26;27.80;60.00
2112;DHT22;1062;52.538;13.400;2022-07-24T15:25:52;28.10;60.30
2112;DHT22;1062;52.538;13.400;2022-07-24T15:28:18;27.90;60.20
2112;DHT22;1062;52.538;13.400;2022-07-24T15:30:44;27.90;59.90
2112;DHT22;1062;52.538;13.400;2022-07-24T15:33:10;27.70;60.60
2112;DHT22;1062;52.538;13.400;2022-07-24T15:35:36;27.60;61.80
2112;DHT22;1062;52.538;13.400;2022-07-24T15:38:01;27.80;60.30
2112;DHT22;1062;52.538;13.400;2022-07-24T15:40:27;27.80;60.60
2112;DHT22;1062;52.538;13.400;2022-07-24T15:42:54;27.90;60.70
2112;DHT22;1062;52.538;13.400;2022-07-24T15:45:20;27.90;61.20
2112;DHT22;1062;52.538;13.400;2022-07-24T15:47:46;27.70;60.70
2112;DHT22;1062;52.538;13.400;2022-07-24T15:50:12;27.80;59.70
2112;DHT22;1062;52.538;13.400;2022-07-24T15:52:38;27.70;59.50
2112;DHT22;1062;52.538;13.400;2022-07-24T15:55:04;27.80;61.20
2112;DHT22;1062;52.538;13.400;2022-07-24T15:57:29;28.10;60.10
2112;DHT22;1062;52.538;13.400;2022-07-24T15:59:55;28.00;60.10
2112;DHT22;1062;52.538;13.400;2022-07-24T16:02:21;28.00;61.00
2112;DHT22;1062;52.538;13.400;2022-07-24T16:04:48;27.90;61.70
2112;DHT22;1062;52.538;13.400;2022-07-24T16:07:14;28.20;61.30
2112;DHT22;1062;52.538;13.400;2022-07-24T16:09:41;28.10;61.10
2112;DHT22;1062;52.538;13.400;2022-07-24T16:12:07;27.90;62.00
2112;DHT22;1062;52.538;13.400;2022-07-24T16:14:33;28.10;61.10
2112;DHT22;1062;52.538;13.400;2022-07-24T16:16:59;28.10;62.60
2112;DHT22;1062;52.538;13.400;2022-07-24T16:19:24;28.00;62.00
2112;DHT22;1062;52.538;13.400;2022-07-24T16:21:50;27.70;61.10